Time;durP1;ratioP1;P1;durP2;ratioP2;P2;SDS_P1;SDS_P2;PMS_P1;PMS_P2;Temp;Humidity;BMP_temperature;BMP_pressure;BME280_temperature;BME280_humidity;BME280_pressure;Samples;Min_cycle;Max_cycle;Signal;HPM_P1;HPM_P2
2022/08/05 00:00:46;;;;;;;7.50;2.22;;;;;;;29.60;37.88;100182.97;4161470;28;20046;-63
2022/08/05 00:02:52;;;;;;;10.20;2.35;;;;;;;29.62;37.92;100190.06;4161766;28;20037;-63
2022/08/05 00:04:56;;;;;;;12.50;3.00;;;;;;;29.77;37.55;100170.19;4162675;28;20042;-63
2022/08/05 00:06:59;;;;;;;8.63;2.45;;;;;;;29.53;37.84;100179.00;4160370;28;20049;-62
2022/08/05 00:09:22;;;;;;;13.05;2.42;;;;;;;29.52;38.12;100179.97;4159750;28;20065;-63
2022/08/05 00:11:25;;;;;;;14.13;2.47;;;;;;;29.39;38.44;100185.31;4162190;28;20048;-62
2022/08/05 00:13:38;;;;;;;16.25;3.03;;;;;;;29.34;38.60;100167.88;4162605;28;20415;-63
2022/08/05 00:15:44;;;;;;;14.77;3.30;;;;;;;29.35;39.31;100193.66;4160224;28;20124;-62
2022/08/05 00:17:59;;;;;;;16.00;3.38;;;;;;;29.28;39.80;100169.16;4161812;28;20076;-62
2022/08/05 00:20:07;;;;;;;15.45;3.50;;;;;;;29.14;40.53;100183.44;4162435;28;20036;-62
2022/08/05 00:22:10;;;;;;;29.15;4.32;;;;;;;29.07;40.99;100176.78;4162142;28;20136;-62
2022/08/05 00:24:13;;;;;;;15.10;3.80;;;;;;;29.10;40.98;100171.22;4144389;28;20607;-62
2022/08/05 00:26:21;;;;;;;9.07;3.00;;;;;;;28.91;41.22;100168.94;4156765;28;20514;-63
2022/08/05 00:28:24;;;;;;;13.87;4.20;;;;;;;29.15;41.29;100170.94;4161654;28;20128;-62
2022/08/05 00:30:31;;;;;;;9.30;3.10;;;;;;;29.04;41.63;100167.16;4155376;28;20046;-63
2022/08/05 00:32:34;;;;;;;20.52;5.10;;;;;;;29.02;42.06;100169.06;4156293;28;20042;-62
2022/08/05 00:34:37;;;;;;;9.50;3.80;;;;;;;29.02;42.16;100170.91;4163443;28;20416;-63
2022/08/05 00:37:01;;;;;;;18.38;5.05;;;;;;;29.08;42.79;100181.19;4164222;28;20072;-63
2022/08/05 00:39:15;;;;;;;;;;;;;;;28.88;43.29;100178.03;4164070;28;20045;-62
2022/08/05 00:41:27;;;;;;;13.10;6.32;;;;;;;28.88;43.40;100178.03;4166677;28;20303;-63
2022/08/05 00:43:50;;;;;;;18.48;5.20;;;;;;;28.70;43.66;100198.00;4164868;28;20045;-62
2022/08/05 00:45:53;;;;;;;14.77;5.45;;;;;;;28.71;44.01;100191.69;4162738;28;20037;-63
2022/08/05 00:47:56;;;;;;;13.80;5.43;;;;;;;28.68;44.02;100202.56;4148081;28;20048;-63
2022/08/05 00:50:08;;;;;;;13.10;4.95;;;;;;;28.61;44.20;100193.25;4165318;28;20045;-63
2022/08/05 00:52:12;;;;;;;19.63;4.90;;;;;;;28.63;44.36;100202.03;4165039;28;20412;-64
2022/08/05 00:54:19;;;;;;;9.88;4.78;;;;;;;28.53;44.65;100204.41;4189616;28;20037;-63
2022/08/05 00:56:22;;;;;;;13.55;5.25;;;;;;;28.50;44.75;100205.47;4165521;28;20458;-63
2022/08/05 00:58:25;;;;;;;14.13;4.73;;;;;;;28.36;44.86;100186.78;4148157;28;20045;-64
2022/08/05 01:00:30;;;;;;;10.45;4.80;;;;;;;28.34;45.07;100172.66;4164406;28;20595;-63
2022/08/05 01:02:35;;;;;;;13.20;4.65;;;;;;;28.37;45.00;100157.28;4161968;28;20461;-64
2022/08/05 01:04:38;;;;;;;10.00;4.63;;;;;;;28.39;44.77;100146.50;4163908;28;20044;-64
2022/08/05 01:06:44;;;;;;;8.65;4.80;;;;;;;28.36;45.15;100139.53;4160885;28;20048;-63
2022/08/05 01:08:51;;;;;;;12.95;4.90;;;;;;;28.38;45.11;100136.75;4164587;28;20064;-64
2022/08/05 01:10:56;;;;;;;;;;;;;;;28.21;45.26;100132.47;4165706;28;20038;-64
2022/08/05 01:13:13;;;;;;;9.20;4.15;;;;;;;28.09;45.47;100146.66;4165138;28;19921;-63
2022/08/05 01:15:29;;;;;;;9.02;4.15;;;;;;;28.14;45.24;100149.88;4165191;28;20045;-64
2022/08/05 01:17:43;;;;;;;8.95;4.13;;;;;;;28.11;44.94;100150.94;4163863;28;20502;-63
2022/08/05 01:19:51;;;;;;;10.30;4.07;;;;;;;28.23;45.29;100154.66;4164239;28;20041;-64
2022/08/05 01:22:40;;;;;;;11.77;4.28;;;;;;;28.24;44.92;100150.16;4163172;28;20535;-63
2022/08/05 01:25:03;;;;;;;11.32;4.38;;;;;;;28.15;45.13;100146.25;4156210;28;20049;-64
2022/08/05 01:27:19;;;;;;;12.27;4.68;;;;;;;28.18;45.20;100146.94;4163934;28;20042;-63
2022/08/05 01:29:32;;;;;;;16.02;4.35;;;;;;;28.22;45.34;100131.53;4158732;28;20495;-63
2022/08/05 01:31:41;;;;;;;11.48;3.90;;;;;;;28.20;45.54;100128.97;4163502;28;20052;-64
2022/08/05 01:33:51;;;;;;;10.55;3.85;;;;;;;28.27;45.39;100116.06;4160809;28;20483;-63
2022/08/05 01:36:01;;;;;;;9.18;4.25;;;;;;;28.19;45.90;100132.59;4162503;28;20042;-63
2022/08/05 01:38:05;;;;;;;13.80;4.15;;;;;;;28.14;45.62;100124.03;4165024;28;20128;-63
2022/08/05 01:40:10;;;;;;;8.55;3.95;;;;;;;28.17;45.71;100109.63;4163320;28;20522;-63
2022/08/05 01:42:16;;;;;;;11.05;3.72;;;;;;;28.23;45.62;100111.88;4180353;28;20518;-63
2022/08/05 01:44:20;;;;;;;11.27;4.70;;;;;;;28.30;45.45;100101.63;4164378;28;20507;-63
2022/08/05 01:46:30;;;;;;;11.80;4.68;;;;;;;28.25;45.17;100103.75;4163511;28;20052;-63
2022/08/05 01:48:47;;;;;;;12.68;4.68;;;;;;;28.06;45.68;100096.94;4164774;28;20104;-63
2022/08/05 01:50:53;;;;;;;10.00;4.10;;;;;;;28.06;45.52;100088.91;4163290;28;20037;-63
2022/08/05 01:52:59;;;;;;;11.00;4.57;;;;;;;28.10;45.78;100095.78;4164667;28;20045;-63
2022/08/05 01:55:07;;;;;;;14.23;4.43;;;;;;;27.94;45.77;100105.72;4163859;28;20037;-63
2022/08/05 01:57:12;;;;;;;6.82;4.68;;;;;;;27.93;46.01;100098.66;4164422;28;20038;-63
2022/08/05 01:59:37;;;;;;;8.32;4.30;;;;;;;28.07;45.68;100095.97;4175185;28;20044;-63
2022/08/05 02:01:43;;;;;;;18.25;4.40;;;;;;;28.00;45.43;100100.00;4193380;28;20461;-63
2022/08/05 02:03:48;;;;;;;7.15;4.45;;;;;;;27.99;45.70;100111.63;4161573;28;20045;-63
2022/08/05 02:05:53;;;;;;;11.27;4.82;;;;;;;28.00;45.63;100100.84;4164037;28;20045;-63
2022/08/05 02:08:02;;;;;;;9.88;4.20;;;;;;;27.86;45.81;100101.72;4195171;28;20110;-63
2022/08/05 02:10:06;;;;;;;7.38;3.67;;;;;;;27.78;46.13;100114.69;4160581;28;20045;-63
2022/08/05 02:12:21;;;;;;;11.27;5.00;;;;;;;27.87;46.11;100129.28;4163511;28;20072;-64
2022/08/05 02:14:30;;;;;;;9.60;4.20;;;;;;;27.81;45.88;100151.91;4157472;28;21636;-63
2022/08/05 02:16:41;;;;;;;10.48;4.00;;;;;;;27.77;46.42;100170.88;4163493;28;20553;-64
2022/08/05 02:18:49;;;;;;;8.68;4.30;;;;;;;27.77;46.07;100168.22;4158800;28;20080;-63
2022/08/05 02:20:54;;;;;;;12.43;5.05;;;;;;;27.90;46.16;100162.97;4161112;28;20037;-63
2022/08/05 02:23:04;;;;;;;9.93;4.25;;;;;;;27.87;45.87;100164.00;4164079;28;20038;-63
2022/08/05 02:25:16;;;;;;;10.77;3.75;;;;;;;27.87;46.26;100143.50;4163304;28;20049;-63
2022/08/05 02:27:21;;;;;;;8.38;4.20;;;;;;;27.89;45.87;100154.09;4159345;28;20407;-63
2022/08/05 02:29:46;;;;;;;12.18;4.38;;;;;;;27.99;45.67;100157.06;4159964;28;20048;-63
2022/08/05 02:32:04;;;;;;;11.50;3.85;;;;;;;28.00;45.53;100166.81;4161297;28;20120;-63
2022/08/05 02:34:11;;;;;;;8.32;4.25;;;;;;;27.99;45.58;100162.41;4161384;28;20128;-63
2022/08/05 02:36:17;;;;;;;11.02;3.80;;;;;;;27.98;45.74;100161.56;4163936;28;20125;-63
2022/08/05 02:38:21;;;;;;;9.13;3.53;;;;;;;27.99;45.73;100167.75;4162810;28;20048;-63
2022/08/05 02:40:29;;;;;;;10.73;4.20;;;;;;;27.89;46.00;100182.63;4146317;28;20500;-63
2022/08/05 02:42:34;;;;;;;5.97;3.65;;;;;;;27.79;46.50;100183.22;4163866;28;20100;-63
2022/08/05 02:44:40;;;;;;;7.85;3.67;;;;;;;27.81;46.31;100170.59;4162936;28;20049;-63
2022/08/05 02:46:46;;;;;;;17.85;5.03;;;;;;;27.94;45.70;100159.16;4163872;28;20400;-63
2022/08/05 02:49:03;;;;;;;8.43;3.50;;;;;;;27.93;45.74;100155.59;4145755;28;20046;-63
2022/08/05 02:51:09;;;;;;;17.33;5.18;;;;;;;28.01;45.53;100144.47;4163768;28;20117;-63
2022/08/05 02:53:12;;;;;;;8.15;3.88;;;;;;;27.94;45.86;100164.50;4194851;28;20118;-63
2022/08/05 02:55:22;;;;;;;17.15;4.30;;;;;;;27.93;46.13;100157.44;4196382;28;20132;-63
2022/08/05 02:57:46;;;;;;;6.55;3.05;;;;;;;27.93;45.92;100158.28;4163157;28;20048;-63
2022/08/05 03:00:12;;;;;;;7.82;4.22;;;;;;;27.95;46.31;100172.41;4162725;28;20091;-63
2022/08/05 03:02:17;;;;;;;8.20;4.00;;;;;;;27.95;46.29;100192.91;4161875;28;20053;-64
2022/08/05 03:04:20;;;;;;;7.85;3.40;;;;;;;27.89;46.08;100204.88;4147803;28;20096;-63
2022/08/05 03:06:26;;;;;;;8.68;3.92;;;;;;;27.78;46.38;100208.19;4164437;28;20559;-63
2022/08/05 03:08:50;;;;;;;;;;;;;;;27.60;47.21;100210.19;4163548;28;20511;-63
2022/08/05 03:10:54;;;;;;;9.50;3.77;;;;;;;27.56;47.23;100219.34;4171366;28;20374;-63
2022/08/05 03:13:17;;;;;;;8.55;3.85;;;;;;;27.57;47.08;100209.50;4158970;28;20046;-64
2022/08/05 03:15:29;;;;;;;7.13;3.70;;;;;;;27.71;47.13;100188.16;4163506;28;20042;-63
2022/08/05 03:17:35;;;;;;;10.57;4.68;;;;;;;27.87;47.60;100153.31;4158886;28;20412;-63
2022/08/05 03:19:43;;;;;;;9.05;5.03;;;;;;;28.05;47.25;100119.25;4163424;28;20053;-63
2022/08/05 03:21:49;;;;;;;10.95;5.25;;;;;;;27.87;47.86;100106.09;4161993;28;20034;-63
2022/08/05 03:23:52;;;;;;;11.35;5.05;;;;;;;27.69;48.35;100077.91;4162561;28;20048;-63
2022/08/05 03:25:56;;;;;;;9.10;5.07;;;;;;;27.57;49.10;100071.53;4163258;28;20072;-64
2022/08/05 03:28:19;;;;;;;13.13;4.68;;;;;;;27.38;48.58;100111.88;4159485;28;20053;-64
2022/08/05 03:30:25;;;;;;;9.45;4.15;;;;;;;27.34;48.04;100159.22;4163368;28;20076;-63
2022/08/05 03:32:36;;;;;;;9.38;4.63;;;;;;;27.24;48.96;100216.75;4158645;28;21246;-63
2022/08/05 03:34:39;;;;;;;7.15;3.67;;;;;;;27.07;49.47;100255.13;4175758;28;20052;-63
2022/08/05 03:36:42;;;;;;;11.77;4.93;;;;;;;27.17;50.12;100234.97;4162853;28;20045;-63
2022/08/05 03:38:47;;;;;;;10.70;5.03;;;;;;;27.40;48.50;100219.41;4162448;28;20045;-64
2022/08/05 03:40:55;;;;;;;7.80;4.63;;;;;;;27.43;48.45;100232.56;4144718;28;20046;-63
2022/08/05 03:43:00;;;;;;;10.15;4.40;;;;;;;27.39;48.74;100256.88;4159011;28;20048;-63
2022/08/05 03:45:23;;;;;;;8.80;4.18;;;;;;;27.30;49.28;100269.78;4161443;28;20124;-64
2022/08/05 03:47:27;;;;;;;9.52;3.72;;;;;;;27.39;49.09;100265.72;4159117;28;20045;-64
2022/08/05 03:49:36;;;;;;;8.48;3.53;;;;;;;27.39;47.86;100268.41;4193452;28;20102;-64
2022/08/05 03:51:58;;;;;;;5.38;3.22;;;;;;;27.35;47.38;100269.56;4159939;28;20514;-64
2022/08/05 03:54:33;;;;;;;6.70;3.00;;;;;;;27.41;47.75;100273.66;4161005;28;20042;-64
2022/08/05 03:56:58;;;;;;;12.43;3.75;;;;;;;27.44;47.49;100284.16;4163268;28;20068;-64
2022/08/05 03:59:07;;;;;;;9.38;4.43;;;;;;;27.43;47.21;100283.28;4161988;28;20439;-64
2022/08/05 04:01:12;;;;;;;4.85;2.80;;;;;;;27.38;46.77;100269.38;4162066;28;20084;-62
2022/08/05 04:03:17;;;;;;;4.75;2.10;;;;;;;27.36;46.44;100281.94;4160042;28;20308;-63
2022/08/05 04:05:33;;;;;;;5.40;2.47;;;;;;;27.18;47.17;100295.38;4162821;28;20544;-63
2022/08/05 04:07:38;;;;;;;6.57;2.40;;;;;;;27.22;46.80;100305.88;4161264;28;20041;-62
2022/08/05 04:10:02;;;;;;;6.95;2.70;;;;;;;27.24;46.76;100330.69;4163067;28;20041;-63
2022/08/05 04:12:06;;;;;;;8.15;2.67;;;;;;;27.14;46.32;100341.00;4165079;28;20033;-62
2022/08/05 04:14:27;;;;;;;6.97;2.40;;;;;;;27.02;46.62;100352.41;4161459;28;20041;-62
2022/08/05 04:16:34;;;;;;;3.50;2.20;;;;;;;26.90;46.55;100359.28;4169911;28;20438;-67
2022/08/05 04:18:38;;;;;;;5.13;2.15;;;;;;;26.82;47.06;100367.69;4166486;28;20053;-67
2022/08/05 04:20:41;;;;;;;5.78;2.42;;;;;;;26.73;47.45;100363.72;4162228;28;20061;-67
2022/08/05 04:22:52;;;;;;;6.63;2.08;;;;;;;26.64;47.32;100367.72;4163774;28;20089;-67
2022/08/05 04:24:55;;;;;;;7.25;2.58;;;;;;;26.58;47.66;100369.88;4163965;28;20061;-67
2022/08/05 04:27:04;;;;;;;4.22;1.98;;;;;;;26.56;47.83;100382.41;4167715;28;20140;-67
2022/08/05 04:29:09;;;;;;;4.22;2.15;;;;;;;26.45;48.22;100381.19;4164352;28;20069;-67
2022/08/05 04:31:12;;;;;;;4.80;2.30;;;;;;;26.50;48.00;100388.94;4167656;28;20041;-66
2022/08/05 04:33:15;;;;;;;6.32;2.67;;;;;;;26.51;48.17;100395.16;4181831;28;20043;-69
2022/08/05 04:35:38;;;;;;;4.05;2.63;;;;;;;26.36;48.77;100395.00;4167019;28;20136;-67
2022/08/05 04:38:01;;;;;;;5.50;2.40;;;;;;;26.54;48.48;100393.16;4172922;28;20510;-67
2022/08/05 04:40:10;;;;;;;5.68;2.42;;;;;;;26.74;47.90;100405.47;4168772;28;20049;-66
2022/08/05 04:42:14;;;;;;;6.40;3.13;;;;;;;26.72;48.32;100415.38;4166468;28;20041;-67
2022/08/05 04:44:17;;;;;;;;;;;;;;;26.68;48.30;100416.47;4158521;28;20049;-67
2022/08/05 04:46:31;;;;;;;6.72;2.55;;;;;;;26.81;48.30;100414.84;4167919;28;20434;-67
2022/08/05 04:48:34;;;;;;;4.53;2.65;;;;;;;26.81;47.80;100420.19;4162643;28;20124;-67
2022/08/05 04:50:41;;;;;;;5.80;2.47;;;;;;;26.81;47.68;100414.00;4164594;28;20339;-67
2022/08/05 04:53:04;;;;;;;4.75;2.42;;;;;;;26.68;48.19;100408.47;4164265;28;20071;-67
2022/08/05 04:55:10;;;;;;;8.77;2.67;;;;;;;26.74;48.38;100418.78;4167044;28;20038;-67
2022/08/05 04:57:18;;;;;;;6.03;2.80;;;;;;;26.79;48.42;100410.53;4177959;28;20045;-67
2022/08/05 04:59:22;;;;;;;3.83;2.20;;;;;;;26.61;48.42;100409.72;4165775;28;20041;-67
2022/08/05 05:01:42;;;;;;;6.75;2.70;;;;;;;26.58;48.75;100429.38;4180149;28;20079;-67
2022/08/05 05:04:05;;;;;;;4.47;2.58;;;;;;;26.41;49.32;100434.75;4159811;28;20107;-67
2022/08/05 05:06:10;;;;;;;8.15;2.72;;;;;;;26.45;49.05;100429.16;4158483;28;20128;-67
2022/08/05 05:08:32;;;;;;;5.25;2.38;;;;;;;26.53;48.81;100441.22;4164013;28;20036;-67
2022/08/05 05:10:40;;;;;;;3.03;2.17;;;;;;;26.58;48.63;100444.53;4193481;28;20476;-67
2022/08/05 05:12:59;;;;;;;5.95;2.38;;;;;;;26.59;48.58;100447.13;4159315;28;20060;-68
2022/08/05 05:15:06;;;;;;;5.22;2.78;;;;;;;26.61;48.97;100447.88;4164749;28;20045;-67
2022/08/05 05:17:12;;;;;;;4.43;2.55;;;;;;;26.71;48.24;100456.31;4164404;28;20136;-67
2022/08/05 05:19:15;;;;;;;5.03;2.25;;;;;;;26.43;49.49;100465.72;4190108;28;20351;-67
2022/08/05 05:21:25;;;;;;;7.53;2.70;;;;;;;26.42;49.40;100461.31;4164607;28;20049;-68
2022/08/05 05:23:29;;;;;;;3.88;2.28;;;;;;;26.63;48.83;100438.03;4159884;28;20113;-68
2022/08/05 05:25:52;;;;;;;5.25;2.60;;;;;;;26.71;48.80;100418.97;4162703;28;20045;-67
2022/08/05 05:27:55;;;;;;;5.95;2.45;;;;;;;26.66;48.83;100418.31;4166038;28;20052;-68
2022/08/05 05:30:00;;;;;;;5.57;1.90;;;;;;;26.53;49.00;100435.91;4181473;28;20051;-67
2022/08/05 05:32:07;;;;;;;4.70;2.70;;;;;;;26.59;48.87;100427.56;4164790;28;20064;-68
2022/08/05 05:34:17;;;;;;;3.15;2.40;;;;;;;26.51;48.89;100432.47;4167541;28;20046;-67
2022/08/05 05:36:28;;;;;;;6.03;3.03;;;;;;;26.46;48.85;100428.25;4162922;28;20068;-67
2022/08/05 05:38:32;;;;;;;4.30;2.03;;;;;;;26.45;49.23;100428.31;4165253;28;20120;-67
2022/08/05 05:40:35;;;;;;;4.20;2.38;;;;;;;26.47;49.03;100432.63;4164213;28;20136;-67
2022/08/05 05:42:38;;;;;;;2.97;2.20;;;;;;;26.42;49.38;100442.66;4163656;28;20530;-68
2022/08/05 05:44:48;;;;;;;7.10;2.40;;;;;;;26.44;49.30;100440.75;4164512;28;20033;-67
2022/08/05 05:46:52;;;;;;;5.18;2.40;;;;;;;26.57;48.92;100446.31;4167281;28;20060;-68
2022/08/05 05:48:57;;;;;;;5.47;2.30;;;;;;;26.77;47.83;100434.63;4171098;28;20065;-68
2022/08/05 05:51:08;;;;;;;7.75;2.90;;;;;;;26.67;48.23;100436.03;4166066;28;20046;-68
2022/08/05 05:53:18;;;;;;;4.90;2.95;;;;;;;26.86;47.92;100443.94;4161295;28;20033;-68
2022/08/05 05:55:23;;;;;;;8.50;2.90;;;;;;;26.67;48.07;100433.38;4168399;28;20037;-68
2022/08/05 05:57:47;;;;;;;7.63;3.10;;;;;;;26.64;48.19;100422.88;4163839;28;20111;-68
2022/08/05 05:59:54;;;;;;;5.78;2.95;;;;;;;26.75;48.12;100419.66;4175355;28;20100;-67
2022/08/05 06:02:00;;;;;;;4.93;2.30;;;;;;;26.86;48.10;100424.41;4148520;28;20507;-67
2022/08/05 06:04:02;;;;;;;;;;;;;;;26.90;47.68;100425.97;4168678;28;20116;-68
2022/08/05 06:06:08;;;;;;;6.30;3.03;;;;;;;26.86;47.87;100419.06;4167637;28;19921;-67
2022/08/05 06:08:12;;;;;;;8.45;2.47;;;;;;;26.80;47.97;100421.13;4164776;28;20057;-68
2022/08/05 06:10:33;;;;;;;5.47;2.35;;;;;;;26.88;48.29;100409.16;4162798;28;20037;-67
2022/08/05 06:12:40;;;;;;;7.65;3.40;;;;;;;27.08;47.74;100402.75;4164271;28;20045;-68
2022/08/05 06:14:44;;;;;;;7.95;3.22;;;;;;;27.11;47.64;100402.56;4163183;28;20052;-68
2022/08/05 06:16:47;;;;;;;6.38;3.00;;;;;;;27.03;47.39;100397.66;4165807;28;20472;-68
2022/08/05 06:18:51;;;;;;;4.63;2.83;;;;;;;26.97;47.74;100392.66;4162523;28;20450;-68
2022/08/05 06:20:55;;;;;;;5.57;2.65;;;;;;;27.02;47.84;100387.94;4162523;28;20513;-67
2022/08/05 06:22:58;;;;;;;6.10;2.42;;;;;;;27.02;48.40;100390.59;4159818;28;20037;-68
2022/08/05 06:25:07;;;;;;;6.32;2.80;;;;;;;27.21;47.20;100394.91;4160917;28;20060;-67
2022/08/05 06:27:30;;;;;;;4.57;3.20;;;;;;;27.20;47.24;100403.84;4154924;28;20526;-68
2022/08/05 06:29:53;;;;;;;4.45;2.50;;;;;;;27.02;47.81;100406.59;4194059;28;20703;-67
2022/08/05 06:32:16;;;;;;;4.80;2.20;;;;;;;26.99;48.29;100398.78;4160623;28;20496;-67
2022/08/05 06:34:29;;;;;;;4.05;2.00;;;;;;;27.09;48.46;100397.31;4160239;28;20380;-67
2022/08/05 06:36:32;;;;;;;9.57;2.40;;;;;;;27.21;48.46;100403.78;4164414;28;20404;-67
2022/08/05 06:38:55;;;;;;;6.60;2.83;;;;;;;27.31;47.92;100412.97;4163458;28;20221;-67
2022/08/05 06:40:58;;;;;;;8.13;3.40;;;;;;;27.31;47.82;100414.78;4144960;28;20858;-67
2022/08/05 06:43:01;;;;;;;7.50;3.15;;;;;;;27.36;47.59;100415.41;4158352;28;20065;-68
2022/08/05 06:45:05;;;;;;;4.63;2.40;;;;;;;27.30;47.97;100419.25;4159201;28;20037;-67
2022/08/05 06:47:10;;;;;;;4.90;2.70;;;;;;;27.35;48.17;100429.72;4155200;28;20478;-67
2022/08/05 06:49:35;;;;;;;5.13;2.67;;;;;;;27.42;47.77;100438.25;4160460;28;20045;-68
2022/08/05 06:51:58;;;;;;;9.47;3.20;;;;;;;27.39;47.97;100436.59;4161535;28;20103;-68
2022/08/05 06:54:03;;;;;;;5.88;2.50;;;;;;;27.50;47.15;100441.34;4159354;28;20300;-68
2022/08/05 06:56:06;;;;;;;4.13;2.50;;;;;;;27.59;47.00;100432.78;4160922;28;20064;-68
2022/08/05 06:58:28;;;;;;;5.57;2.35;;;;;;;27.59;46.66;100438.13;4162406;28;20499;-68
2022/08/05 07:00:38;;;;;;;4.13;2.50;;;;;;;27.68;45.60;100445.59;4163096;28;20064;-68
2022/08/05 07:02:43;;;;;;;4.20;2.10;;;;;;;27.45;46.74;100451.41;4168656;28;20053;-68
2022/08/05 07:04:47;;;;;;;4.18;2.30;;;;;;;27.46;45.75;100456.66;4165375;28;20061;-67
2022/08/05 07:06:50;;;;;;;6.10;2.20;;;;;;;27.55;45.79;100459.78;4170060;28;20047;-68
2022/08/05 07:08:53;;;;;;;4.80;2.30;;;;;;;27.50;46.43;100460.88;4166272;28;20148;-67
2022/08/05 07:10:57;;;;;;;4.35;2.00;;;;;;;27.49;46.00;100475.16;4161818;28;20408;-67
2022/08/05 07:18:06;;;;;;;7.90;2.55;;;;;;;27.53;44.99;100470.53;4164398;28;20037;-68
2022/08/05 07:20:13;;;;;;;7.35;2.15;;;;;;;27.75;45.04;100486.19;4159309;28;20045;-67
2022/08/05 07:22:35;;;;;;;5.57;2.40;;;;;;;27.68;44.84;100479.47;4157962;28;20120;-68
2022/08/05 07:24:39;;;;;;;3.88;2.13;;;;;;;27.63;44.84;100470.88;4159906;28;20462;-68
2022/08/05 07:26:54;;;;;;;4.07;2.28;;;;;;;27.54;44.43;100471.38;4157262;28;20154;-67
2022/08/05 07:28:57;;;;;;;7.10;2.50;;;;;;;27.42;44.84;100492.47;4191431;28;20048;-68
2022/08/05 07:31:01;;;;;;;8.15;2.80;;;;;;;27.39;44.72;100486.47;4157502;28;20041;-67
2022/08/05 07:33:05;;;;;;;6.60;2.20;;;;;;;27.33;44.42;100477.84;4174961;28;20044;-69
2022/08/05 07:35:14;;;;;;;9.90;2.20;;;;;;;27.25;44.31;100484.53;4164175;28;20042;-68
2022/08/05 07:37:38;;;;;;;9.85;2.17;;;;;;;27.15;44.43;100455.69;4155780;28;20132;-68
2022/08/05 07:39:41;;;;;;;3.40;1.88;;;;;;;27.22;44.09;100455.34;4168141;28;20411;-69
2022/08/05 07:42:04;;;;;;;2.55;1.98;;;;;;;27.34;44.04;100454.69;4157625;28;20045;-68
2022/08/05 07:44:16;;;;;;;6.90;2.50;;;;;;;27.43;44.02;100459.50;4157764;28;20034;-68
2022/08/05 07:46:21;;;;;;;2.38;1.83;;;;;;;27.54;43.17;100460.72;4164026;28;20124;-69
2022/08/05 07:48:27;;;;;;;4.72;2.08;;;;;;;27.71;42.86;100441.06;4163312;28;20033;-69
2022/08/05 07:50:51;;;;;;;6.97;2.22;;;;;;;27.91;42.47;100429.22;4172777;28;20091;-69
2022/08/05 07:52:54;;;;;;;5.07;1.90;;;;;;;27.98;41.98;100433.28;4168710;28;20071;-69
2022/08/05 07:54:57;;;;;;;2.38;1.48;;;;;;;27.89;42.23;100444.44;4170059;28;20037;-69
2022/08/05 07:57:02;;;;;;;2.20;1.50;;;;;;;27.87;42.08;100453.41;4168075;28;20049;-69
2022/08/05 07:59:25;;;;;;;2.70;1.98;;;;;;;27.76;41.91;100471.91;4176984;28;20500;-69
2022/08/05 08:01:41;;;;;;;3.13;1.70;;;;;;;27.63;42.01;100471.72;4162291;28;20124;-69
2022/08/05 08:03:59;;;;;;;7.55;1.92;;;;;;;27.68;41.93;100452.78;4170819;28;20037;-69
2022/08/05 08:06:04;;;;;;;4.07;1.92;;;;;;;27.60;42.04;100445.22;4170095;28;20068;-69
2022/08/05 08:08:12;;;;;;;5.53;1.90;;;;;;;27.58;42.30;100462.25;4174017;28;20542;-69
2022/08/05 08:10:17;;;;;;;4.63;1.63;;;;;;;27.57;42.50;100480.09;4161305;28;20044;-69
2022/08/05 08:12:23;;;;;;;3.60;1.88;;;;;;;27.54;42.59;100487.41;4166675;28;20076;-71
2022/08/05 08:14:41;;;;;;;6.20;2.00;;;;;;;27.42;41.99;100505.00;4168020;28;20080;-69
2022/08/05 08:16:48;;;;;;;4.35;2.05;;;;;;;27.44;41.52;100495.94;4152781;28;20508;-69
2022/08/05 08:18:55;;;;;;;8.40;1.90;;;;;;;27.42;41.51;100503.16;4167468;28;20478;-69
2022/08/05 08:20:59;;;;;;;4.63;1.50;;;;;;;27.49;41.74;100483.19;4166687;28;20037;-69
2022/08/05 08:23:07;;;;;;;6.28;1.98;;;;;;;27.45;41.29;100484.34;4165866;28;20360;-69
2022/08/05 08:25:31;;;;;;;6.57;1.80;;;;;;;27.36;41.13;100468.81;4167952;28;20471;-69
2022/08/05 08:27:54;;;;;;;2.63;1.50;;;;;;;27.44;41.69;100455.91;4171829;28;20491;-69
2022/08/05 08:29:57;;;;;;;5.00;1.73;;;;;;;27.46;41.42;100458.47;4172852;28;20351;-70
2022/08/05 08:32:20;;;;;;;4.85;1.80;;;;;;;27.69;41.09;100438.47;4162577;28;20398;-70
2022/08/05 08:34:29;;;;;;;3.03;1.60;;;;;;;27.47;41.16;100433.50;4172507;28;20033;-70
2022/08/05 08:36:35;;;;;;;2.13;1.52;;;;;;;27.30;40.66;100426.41;4170730;28;20549;-68
2022/08/05 08:38:57;;;;;;;3.38;1.73;;;;;;;27.27;40.66;100418.59;4177595;28;20328;-69
2022/08/05 08:41:06;;;;;;;5.05;2.17;;;;;;;27.42;41.34;100408.88;4190306;28;20624;-69
2022/08/05 08:43:13;;;;;;;6.10;1.80;;;;;;;27.71;40.92;100391.16;4163671;28;20045;-69
2022/08/05 08:45:37;;;;;;;6.63;1.67;;;;;;;27.48;42.31;100392.50;4161695;28;20045;-69
2022/08/05 08:47:42;;;;;;;4.05;1.88;;;;;;;27.63;42.17;100367.56;4166192;28;20064;-69
2022/08/05 08:50:07;;;;;;;4.53;1.70;;;;;;;27.47;42.92;100399.66;4164389;28;20037;-70
2022/08/05 08:52:32;;;;;;;2.63;1.85;;;;;;;27.39;44.31;100420.56;4166895;28;20036;-71
2022/08/05 08:54:37;;;;;;;5.55;2.05;;;;;;;27.41;44.86;100402.69;4153323;28;20064;-71
2022/08/05 08:56:43;;;;;;;4.97;2.03;;;;;;;27.41;45.22;100384.00;4165089;28;20049;-71
2022/08/05 08:58:52;;;;;;;22.15;3.30;;;;;;;27.45;45.12;100390.88;4147848;28;20092;-71
2022/08/05 09:00:55;;;;;;;7.68;2.58;;;;;;;27.37;45.70;100395.78;4178353;28;20495;-72
2022/08/05 09:02:58;;;;;;;3.40;1.83;;;;;;;27.28;45.74;100402.47;4179111;28;20048;-71
2022/08/05 09:05:01;;;;;;;7.83;2.57;;;;;;;27.39;45.79;100411.72;4163486;28;20080;-70
2022/08/05 09:07:20;;;;;;;4.28;2.30;;;;;;;27.18;45.57;100396.78;4163241;28;20546;-71
2022/08/05 09:09:31;;;;;;;7.10;2.00;;;;;;;26.99;46.60;100402.28;4170613;28;20133;-71
2022/08/05 09:11:39;;;;;;;3.47;1.73;;;;;;;27.03;46.71;100407.47;4157154;28;20049;-71
2022/08/05 09:13:56;;;;;;;2.40;1.90;;;;;;;27.11;46.69;100427.44;4162447;28;20127;-72
2022/08/05 09:16:19;;;;;;;4.45;1.85;;;;;;;27.33;46.51;100439.59;4169029;28;20099;-71
2022/08/05 09:18:29;;;;;;;4.18;2.00;;;;;;;27.56;46.09;100450.81;4171614;28;20061;-70
2022/08/05 09:20:32;;;;;;;7.53;2.05;;;;;;;27.97;44.97;100447.56;4165140;28;20452;-71
2022/08/05 09:23:11;;;;;;;3.75;1.60;;;;;;;27.94;44.94;100453.94;4169614;28;20049;-71
2022/08/05 09:25:21;;;;;;;2.92;1.92;;;;;;;28.28;43.49;100443.06;4168261;28;20517;-71
2022/08/05 09:27:45;;;;;;;2.90;1.45;;;;;;;28.09;44.52;100448.66;4194515;28;20044;-71
2022/08/05 09:30:09;;;;;;;3.47;1.67;;;;;;;27.96;44.57;100445.81;4175101;28;20044;-71
2022/08/05 09:32:19;;;;;;;4.38;1.65;;;;;;;27.98;45.07;100444.81;4179638;28;20033;-71
2022/08/05 09:34:53;;;;;;;4.93;2.15;;;;;;;28.08;45.19;100439.78;4170889;28;20037;-72
2022/08/05 09:36:56;;;;;;;;;;;;;;;28.07;44.12;100435.41;4166574;28;20045;-72
2022/08/05 09:39:02;;;;;;;;;;;;;;;28.14;43.73;100434.06;4162890;28;19921;-71
2022/08/05 09:41:18;;;;;;;3.85;1.92;;;;;;;28.17;44.64;100423.19;4169918;28;19960;-71
2022/08/05 09:43:30;;;;;;;8.43;1.80;;;;;;;28.24;42.95;100438.84;4158076;28;20041;-71
2022/08/05 09:45:44;;;;;;;4.63;1.63;;;;;;;28.36;41.90;100447.00;4163953;28;20136;-71
2022/08/05 09:48:20;;;;;;;5.47;1.88;;;;;;;28.52;42.14;100456.78;4162797;28;20045;-71
2022/08/05 09:50:34;;;;;;;4.22;1.40;;;;;;;28.55;41.92;100457.44;4171048;28;20036;-71
2022/08/05 09:52:47;;;;;;;2.25;1.50;;;;;;;28.66;41.72;100461.31;4188442;28;23035;-71
2022/08/05 09:54:57;;;;;;;2.65;1.73;;;;;;;28.58;41.08;100479.59;4163420;28;20053;-71
2022/08/05 09:57:00;;;;;;;2.63;1.55;;;;;;;28.93;40.35;100468.56;4162171;28;20136;-71
2022/08/05 09:59:07;;;;;;;1.92;1.60;;;;;;;28.72;40.37;100469.81;4156391;28;20137;-71
2022/08/05 10:01:12;;;;;;;4.45;1.60;;;;;;;28.95;39.83;100461.31;4161283;28;20052;-71
2022/08/05 10:03:25;;;;;;;2.65;1.65;;;;;;;28.79;40.32;100456.91;4167583;28;20041;-71
2022/08/05 10:06:01;;;;;;;2.72;1.55;;;;;;;28.70;40.27;100454.81;4164502;28;20051;-70
2022/08/05 10:08:25;;;;;;;5.97;2.40;;;;;;;28.47;40.48;100453.50;4164992;28;20037;-70
2022/08/05 10:10:47;;;;;;;4.07;2.50;;;;;;;28.42;40.82;100464.50;4167287;28;20041;-70